createdAt,value
2022-12-20T00:01:51.279Z,8.94
2022-12-20T00:04:18.802Z,9.97
2022-12-20T00:06:46.404Z,9.77
2022-12-20T00:09:15.219Z,10.60
2022-12-20T00:11:44.275Z,10.61
2022-12-20T00:14:12.040Z,10.50
2022-12-20T00:16:39.722Z,9.28
2022-12-20T00:19:08.819Z,8.57
2022-12-20T00:21:36.986Z,7.02
2022-12-20T00:24:05.316Z,6.60
2022-12-20T00:26:35.702Z,7.18
2022-12-20T00:29:03.144Z,7.65
2022-12-20T00:31:31.640Z,7.43
2022-12-20T00:34:00.247Z,7.43
2022-12-20T00:36:30.077Z,7.48
2022-12-20T00:39:00.245Z,7.51
2022-12-20T00:41:29.162Z,7.05
2022-12-20T00:43:58.420Z,7.32
2022-12-20T00:46:26.988Z,7.15
2022-12-20T00:48:55.278Z,7.21
2022-12-20T00:51:24.999Z,7.31
2022-12-20T00:53:53.561Z,7.34
2022-12-20T00:56:21.296Z,7.16
2022-12-20T00:58:49.162Z,7.22
2022-12-20T01:01:21.498Z,7.15
2022-12-20T01:03:49.557Z,7.32
2022-12-20T01:06:17.661Z,6.92
2022-12-20T01:08:45.113Z,6.87
2022-12-20T01:11:14.893Z,7.20
2022-12-20T01:13:44.866Z,7.29
2022-12-20T01:16:15.192Z,6.30
2022-12-20T01:18:44.172Z,7.07
2022-12-20T01:21:14.459Z,7.25
2022-12-20T01:23:42.428Z,7.47
2022-12-20T01:26:13.095Z,7.43
2022-12-20T01:28:42.549Z,7.25
2022-12-20T01:31:12.686Z,7.16
2022-12-20T01:33:40.939Z,7.45
2022-12-20T01:36:14.706Z,7.39
2022-12-20T01:38:42.332Z,7.21
2022-12-20T01:41:15.540Z,7.12
2022-12-20T01:43:49.168Z,7.50
2022-12-20T01:46:17.319Z,7.33
2022-12-20T01:48:49.481Z,7.33
2022-12-20T01:51:19.433Z,7.40
2022-12-20T01:53:47.965Z,7.07
2022-12-20T01:56:15.712Z,6.96
2022-12-20T01:58:43.451Z,6.76
2022-12-20T02:01:11.002Z,7.09
2022-12-20T02:03:39.955Z,6.94
2022-12-20T02:06:20.264Z,7.36
2022-12-20T02:08:49.281Z,7.45
2022-12-20T02:11:33.186Z,6.87
2022-12-20T02:14:11.658Z,7.42
2022-12-20T02:16:47.910Z,7.34
2022-12-20T02:19:42.583Z,7.43
2022-12-20T02:22:23.885Z,7.01
2022-12-20T02:25:22.923Z,7.26
2022-12-20T02:27:58.550Z,7.24
2022-12-20T02:30:33.532Z,6.88
2022-12-20T02:33:04.089Z,7.48
2022-12-20T02:35:35.031Z,7.53
2022-12-20T02:38:05.073Z,6.39
2022-12-20T02:40:38.994Z,6.37
2022-12-20T02:43:35.402Z,7.32
2022-12-20T02:46:04.143Z,7.42
2022-12-20T02:48:35.487Z,7.38
2022-12-20T02:51:06.537Z,6.93
2022-12-20T02:53:35.018Z,7.49
2022-12-20T02:56:10.442Z,7.67
2022-12-20T02:58:43.241Z,7.58
2022-12-20T03:01:18.335Z,7.51
2022-12-20T03:03:46.504Z,7.58
2022-12-20T03:06:14.100Z,7.66
2022-12-20T03:08:41.556Z,7.59
2022-12-20T03:11:08.987Z,7.58
2022-12-20T03:13:36.420Z,7.63
2022-12-20T03:16:04.868Z,7.25
2022-12-20T03:18:33.708Z,7.79
2022-12-20T03:21:01.160Z,7.53
2022-12-20T03:23:28.607Z,7.46
2022-12-20T03:25:56.381Z,7.54
2022-12-20T03:28:23.997Z,7.78
2022-12-20T03:30:51.445Z,7.33
2022-12-20T03:33:18.843Z,7.47
2022-12-20T03:35:48.215Z,7.40
2022-12-20T03:38:15.666Z,7.22
2022-12-20T03:40:43.109Z,7.65
2022-12-20T03:43:10.514Z,7.50
2022-12-20T03:45:37.939Z,7.84
2022-12-20T03:48:05.355Z,7.89
2022-12-20T03:50:32.800Z,7.99
2022-12-20T03:53:01.761Z,7.77
2022-12-20T03:55:29.320Z,7.92
2022-12-20T03:57:56.972Z,7.78
2022-12-20T04:00:24.518Z,7.83
2022-12-20T04:02:52.344Z,7.77
2022-12-20T04:05:21.239Z,7.78
2022-12-20T04:07:48.701Z,7.78
2022-12-20T04:10:17.554Z,7.70
2022-12-20T04:12:45.007Z,7.61
2022-12-20T04:15:12.449Z,7.12
2022-12-20T04:17:40.006Z,7.28
2022-12-20T04:20:19.645Z,7.58
2022-12-20T04:22:47.227Z,6.97
2022-12-20T04:25:15.049Z,7.17
2022-12-20T04:27:43.805Z,6.39
2022-12-20T04:30:12.573Z,6.60
2022-12-20T04:32:40.151Z,7.26
2022-12-20T04:35:08.458Z,7.09
2022-12-20T04:37:35.896Z,7.25
2022-12-20T04:40:03.301Z,7.38
2022-12-20T04:42:30.752Z,7.47
2022-12-20T04:44:59.590Z,7.17
2022-12-20T04:47:27.031Z,7.09
2022-12-20T04:49:54.453Z,7.37
2022-12-20T04:52:43.609Z,7.43
2022-12-20T04:55:15.018Z,7.38
2022-12-20T04:57:42.476Z,6.95
2022-12-20T05:00:12.625Z,6.80
2022-12-20T05:02:40.120Z,7.34
2022-12-20T05:05:08.472Z,6.49
2022-12-20T05:07:35.907Z,6.99
2022-12-20T05:10:03.356Z,7.19
2022-12-20T05:12:30.784Z,7.01
2022-12-20T05:14:58.247Z,6.82
2022-12-20T05:17:26.989Z,6.87
2022-12-20T05:19:54.420Z,7.36
2022-12-20T05:22:39.340Z,7.56
2022-12-20T05:25:24.672Z,6.85
2022-12-20T05:27:52.091Z,6.89
2022-12-20T05:30:20.156Z,7.30
2022-12-20T05:32:49.174Z,7.48
2022-12-20T05:35:16.679Z,7.41
2022-12-20T05:37:44.217Z,7.56
2022-12-20T05:40:12.374Z,7.53
2022-12-20T05:42:40.221Z,7.67
2022-12-20T05:45:08.222Z,7.54
2022-12-20T05:47:35.633Z,7.53
2022-12-20T05:50:05.045Z,7.91
2022-12-20T05:52:33.164Z,8.02
2022-12-20T05:55:00.626Z,8.00
2022-12-20T05:57:28.607Z,7.88
2022-12-20T05:59:56.123Z,7.93
2022-12-20T06:02:23.808Z,7.82
2022-12-20T06:04:51.342Z,7.95
2022-12-20T06:07:20.464Z,8.05
2022-12-20T06:09:47.875Z,7.97
2022-12-20T06:12:15.381Z,7.95
2022-12-20T06:14:42.887Z,8.04
2022-12-20T06:17:12.012Z,8.09
2022-12-20T06:19:41.478Z,8.14
2022-12-20T06:22:09.544Z,7.67
2022-12-20T06:24:44.291Z,7.98
2022-12-20T06:27:15.549Z,7.91
2022-12-20T06:29:49.486Z,7.80
2022-12-20T06:32:16.888Z,7.71
2022-12-20T06:34:45.230Z,8.01
2022-12-20T06:37:12.848Z,8.12
2022-12-20T06:39:41.674Z,7.97
2022-12-20T06:42:09.244Z,8.06
2022-12-20T06:44:36.747Z,8.21
2022-12-20T06:47:04.868Z,8.25
2022-12-20T06:49:32.358Z,8.00
2022-12-20T06:51:59.793Z,8.04
2022-12-20T06:54:27.280Z,8.20
2022-12-20T06:56:56.095Z,8.25
2022-12-20T06:59:23.584Z,8.18
2022-12-20T07:01:53.526Z,8.06
2022-12-20T07:04:21.356Z,8.18
2022-12-20T07:06:48.857Z,8.06
2022-12-20T07:09:16.409Z,8.27
2022-12-20T07:11:44.280Z,7.47
2022-12-20T07:14:13.197Z,7.54
2022-12-20T07:16:41.622Z,7.44
2022-12-20T07:19:11.907Z,7.72
2022-12-20T07:21:39.482Z,8.04
2022-12-20T07:24:07.951Z,7.50
2022-12-20T07:26:35.804Z,8.06
2022-12-20T07:29:03.536Z,7.31
2022-12-20T07:31:32.345Z,7.67
2022-12-20T07:34:00.014Z,8.13
2022-12-20T07:36:27.612Z,8.18
2022-12-20T07:38:55.136Z,8.39
2022-12-20T07:41:22.799Z,8.23
2022-12-20T07:43:50.285Z,8.04
2022-12-20T07:46:18.800Z,7.78
2022-12-20T07:48:47.627Z,8.11
2022-12-20T07:51:18.753Z,8.25
2022-12-20T07:53:49.736Z,8.17
2022-12-20T07:56:19.425Z,8.35
2022-12-20T07:58:46.963Z,8.34
2022-12-20T08:01:14.910Z,8.41
2022-12-20T08:03:47.146Z,8.47
2022-12-20T08:06:17.000Z,8.51
2022-12-20T08:08:48.843Z,8.34
2022-12-20T08:11:17.493Z,8.11
2022-12-20T08:13:46.736Z,8.40
2022-12-20T08:16:15.018Z,8.47
2022-12-20T08:18:42.498Z,8.39
2022-12-20T08:21:10.736Z,8.56
2022-12-20T08:23:39.473Z,8.49
2022-12-20T08:26:07.057Z,8.52
2022-12-20T08:28:35.401Z,8.37
2022-12-20T08:31:03.236Z,8.50
2022-12-20T08:33:31.028Z,8.64
2022-12-20T08:35:59.525Z,8.44
2022-12-20T08:38:28.817Z,8.04
2022-12-20T08:40:58.022Z,8.32
2022-12-20T08:43:25.458Z,8.58
2022-12-20T08:45:55.257Z,8.51
2022-12-20T08:48:23.534Z,8.64
2022-12-20T08:50:55.603Z,8.64
2022-12-20T08:53:23.600Z,8.81
2022-12-20T08:55:51.046Z,8.73
2022-12-20T08:58:20.264Z,8.85
2022-12-20T09:00:48.191Z,8.75
2022-12-20T09:03:15.761Z,9.00
2022-12-20T09:05:47.549Z,8.81
2022-12-20T09:08:15.878Z,9.00
2022-12-20T09:10:43.571Z,8.98
2022-12-20T09:13:11.806Z,8.98
2022-12-20T09:15:40.856Z,8.86
2022-12-20T09:18:08.307Z,9.18
2022-12-20T09:20:35.766Z,8.93
2022-12-20T09:23:03.692Z,9.18
2022-12-20T09:25:31.223Z,9.20
2022-12-20T09:27:58.781Z,9.36
2022-12-20T09:30:26.299Z,9.49
2022-12-20T09:32:57.035Z,9.60
2022-12-20T09:35:38.140Z,9.67
2022-12-20T09:38:05.995Z,9.23
2022-12-20T09:40:33.663Z,9.28
2022-12-20T09:43:01.323Z,9.37
2022-12-20T09:45:31.263Z,9.65
2022-12-20T09:48:00.175Z,9.60
2022-12-20T09:50:41.043Z,9.84
2022-12-20T09:53:20.958Z,9.60
2022-12-20T09:55:54.847Z,9.88
2022-12-20T09:58:37.942Z,9.58
2022-12-20T10:01:22.970Z,9.77
2022-12-20T10:03:54.894Z,8.87
2022-12-20T10:06:34.826Z,9.50
2022-12-20T10:09:05.146Z,9.98
2022-12-20T10:11:51.177Z,9.85
2022-12-20T10:14:34.687Z,10.02
2022-12-20T10:17:06.213Z,10.09
2022-12-20T10:19:57.645Z,10.16
2022-12-20T10:22:30.061Z,9.74
2022-12-20T10:25:02.883Z,9.81
2022-12-20T10:27:30.489Z,10.21
2022-12-20T10:29:58.245Z,10.30
2022-12-20T10:32:26.951Z,10.30
2022-12-20T10:35:00.277Z,10.23
2022-12-20T10:37:27.839Z,10.07
2022-12-20T10:39:55.426Z,10.25
2022-12-20T10:42:27.410Z,10.20
2022-12-20T10:44:56.977Z,10.27
2022-12-20T10:47:34.875Z,10.06
2022-12-20T10:50:14.546Z,10.37
2022-12-20T10:52:42.320Z,10.66
2022-12-20T10:55:36.019Z,10.20
2022-12-20T10:58:12.923Z,10.47
2022-12-20T11:00:41.454Z,10.31
2022-12-20T11:03:15.746Z,10.13
2022-12-20T11:05:56.380Z,10.52
2022-12-20T11:08:51.229Z,10.73
2022-12-20T11:11:17.225Z,10.58
2022-12-20T11:13:46.115Z,10.28
2022-12-20T11:16:25.389Z,10.65
2022-12-20T11:19:03.126Z,10.30
2022-12-20T11:21:43.132Z,10.33
2022-12-20T11:24:15.381Z,10.34
2022-12-20T11:26:58.737Z,10.65
2022-12-20T11:29:50.144Z,10.80
2022-12-20T11:32:30.055Z,10.27
2022-12-20T11:35:09.356Z,10.37
2022-12-20T11:37:47.320Z,10.41
2022-12-20T11:40:28.084Z,10.70
2022-12-20T11:43:07.765Z,10.82
2022-12-20T11:45:44.079Z,10.09
2022-12-20T11:48:28.045Z,10.49
2022-12-20T11:51:04.209Z,10.72
2022-12-20T11:53:40.430Z,10.93
2022-12-20T11:56:17.026Z,10.44
2022-12-20T11:58:52.849Z,10.40
2022-12-20T12:01:24.276Z,10.85
2022-12-20T12:04:06.613Z,10.26
2022-12-20T12:06:36.995Z,10.62
2022-12-20T12:09:22.134Z,11.12
2022-12-20T12:12:06.843Z,11.02
2022-12-20T12:14:55.659Z,11.11
2022-12-20T12:17:33.676Z,10.62
2022-12-20T12:20:16.660Z,10.79
2022-12-20T12:22:46.848Z,11.01
2022-12-20T12:25:19.331Z,10.65
2022-12-20T12:27:46.929Z,10.71
2022-12-20T12:30:16.072Z,11.10
2022-12-20T12:32:50.808Z,10.53
2022-12-20T12:35:46.800Z,10.81
2022-12-20T12:38:34.009Z,11.07
2022-12-20T12:41:41.848Z,10.84
2022-12-20T12:44:33.570Z,10.47
2022-12-20T12:47:06.285Z,10.95
2022-12-20T12:49:35.000Z,10.75
2022-12-20T12:52:05.868Z,11.10
2022-12-20T12:54:38.525Z,11.23
2022-12-20T12:57:13.577Z,11.10
2022-12-20T12:59:43.869Z,10.88
2022-12-20T13:02:37.118Z,11.18
2022-12-20T13:05:34.417Z,10.68
2022-12-20T13:08:01.885Z,11.06
2022-12-20T13:11:09.056Z,11.04
2022-12-20T13:13:37.829Z,11.04
2022-12-20T13:16:11.332Z,10.85
2022-12-20T13:18:38.904Z,10.74
2022-12-20T13:21:37.233Z,10.93
2022-12-20T13:24:40.331Z,11.00
2022-12-20T13:27:22.636Z,10.73
2022-12-20T13:30:02.448Z,10.84
2022-12-20T13:32:56.759Z,10.84
2022-12-20T13:35:33.623Z,10.40
2022-12-20T13:38:04.717Z,10.33
2022-12-20T13:40:37.561Z,10.45
2022-12-20T13:43:13.098Z,9.90
2022-12-20T13:45:46.666Z,9.89
2022-12-20T13:48:18.558Z,9.93
2022-12-20T13:50:52.297Z,10.33
2022-12-20T13:53:21.426Z,10.31
2022-12-20T13:55:50.160Z,10.69
2022-12-20T13:58:20.593Z,10.23
2022-12-20T14:00:50.663Z,10.49
2022-12-20T14:03:25.207Z,10.24
2022-12-20T14:05:58.326Z,9.69
2022-12-20T14:08:30.004Z,10.20
2022-12-20T14:11:08.629Z,10.45
2022-12-20T14:13:36.034Z,10.00
2022-12-20T14:16:15.554Z,10.02
2022-12-20T14:18:44.363Z,10.48
2022-12-20T14:21:12.002Z,10.60
2022-12-20T14:23:41.878Z,10.44
2022-12-20T14:26:13.877Z,10.32
2022-12-20T14:28:44.319Z,10.38
2022-12-20T14:31:26.398Z,10.50
2022-12-20T14:34:04.022Z,10.40
2022-12-20T14:36:31.781Z,10.40
2022-12-20T14:38:59.276Z,10.28
2022-12-20T14:41:31.952Z,10.37
2022-12-20T14:44:03.966Z,10.14
2022-12-20T14:46:33.007Z,10.07
2022-12-20T14:49:18.199Z,9.93
2022-12-20T14:51:46.640Z,9.96
2022-12-20T14:54:47.734Z,10.22
2022-12-20T14:57:12.667Z,10.31
2022-12-20T14:59:40.280Z,10.19
2022-12-20T15:02:35.538Z,9.71
2022-12-20T15:05:26.024Z,9.88
2022-12-20T15:07:53.489Z,10.25
2022-12-20T15:10:20.877Z,10.13
2022-12-20T15:12:48.451Z,10.15
2022-12-20T15:15:31.464Z,9.65
2022-12-20T15:18:00.240Z,9.98
2022-12-20T15:20:27.752Z,10.23
2022-12-20T15:22:55.260Z,10.21
2022-12-20T15:25:22.782Z,10.04
2022-12-20T15:27:50.308Z,10.30
2022-12-20T15:30:18.666Z,10.15
2022-12-20T15:32:55.241Z,9.97
2022-12-20T15:35:25.689Z,10.03
2022-12-20T15:37:53.112Z,9.69
2022-12-20T15:40:20.744Z,9.94
2022-12-20T15:42:48.293Z,9.98
2022-12-20T15:45:16.264Z,10.25
2022-12-20T15:47:43.736Z,10.17
2022-12-20T15:50:13.685Z,10.33
2022-12-20T15:52:44.271Z,10.22
2022-12-20T15:55:12.374Z,10.26
2022-12-20T15:57:39.785Z,10.30
2022-12-20T16:00:10.908Z,10.26
2022-12-20T16:02:38.659Z,9.88
2022-12-20T16:05:06.810Z,10.00
2022-12-20T16:07:34.268Z,9.40
2022-12-20T16:10:03.198Z,9.91
2022-12-20T16:12:34.151Z,9.69
2022-12-20T16:15:01.707Z,9.88
2022-12-20T16:17:29.181Z,9.67
2022-12-20T16:19:56.670Z,9.59
2022-12-20T16:22:26.105Z,9.84
2022-12-20T16:24:53.563Z,9.75
2022-12-20T16:27:22.691Z,9.80
2022-12-20T16:29:50.162Z,9.80
2022-12-20T16:32:19.591Z,9.99
2022-12-20T16:34:47.209Z,9.41
2022-12-20T16:37:14.927Z,9.63
2022-12-20T16:39:43.179Z,9.38
2022-12-20T16:42:14.587Z,9.22
2022-12-20T16:44:45.266Z,9.16
2022-12-20T16:47:14.159Z,9.54
2022-12-20T16:49:45.780Z,9.59
2022-12-20T16:52:19.442Z,9.92
2022-12-20T16:54:46.967Z,9.90
2022-12-20T16:57:14.531Z,9.79
2022-12-20T16:59:43.363Z,9.51
2022-12-20T17:02:24.449Z,9.92
2022-12-20T17:04:52.207Z,9.93
2022-12-20T17:07:19.639Z,9.91
2022-12-20T17:12:32.177Z,10.00
2022-12-20T17:15:00.898Z,9.33
2022-12-20T17:17:28.306Z,9.61
2022-12-20T17:19:55.744Z,9.85
2022-12-20T17:25:19.272Z,9.92
2022-12-20T17:27:46.728Z,10.01
2022-12-20T17:30:15.999Z,9.52
2022-12-20T17:32:43.482Z,9.52
2022-12-20T17:35:20.659Z,9.86
2022-12-20T17:37:48.264Z,9.92
2022-12-20T17:40:16.825Z,9.88
2022-12-20T17:42:44.411Z,9.91
2022-12-20T17:45:26.400Z,8.92
2022-12-20T17:47:54.929Z,9.16
2022-12-20T17:50:22.915Z,9.81
2022-12-20T17:52:50.373Z,9.86
2022-12-20T17:55:20.740Z,9.35
2022-12-20T17:57:48.412Z,9.64
2022-12-20T18:00:25.333Z,9.85
2022-12-20T18:02:53.858Z,9.96
2022-12-20T18:05:22.584Z,10.07
2022-12-20T18:07:51.611Z,9.97
2022-12-20T18:10:19.136Z,9.84
2022-12-20T18:12:47.048Z,9.80
2022-12-20T18:15:15.288Z,9.79
2022-12-20T18:17:44.466Z,9.50
2022-12-20T18:20:12.939Z,9.48
2022-12-20T18:22:40.635Z,9.52
2022-12-20T18:25:08.702Z,9.83
2022-12-20T18:27:40.521Z,9.41
2022-12-20T18:30:13.475Z,9.94
2022-12-20T18:32:41.408Z,9.97
2022-12-20T18:35:11.100Z,9.97
2022-12-20T18:37:38.532Z,9.88
2022-12-20T18:40:07.438Z,10.14
2022-12-20T18:42:34.935Z,10.05
2022-12-20T18:45:02.401Z,10.04
2022-12-20T18:47:32.244Z,9.90
2022-12-20T18:49:59.866Z,10.00
2022-12-20T18:52:28.636Z,9.91
2022-12-20T18:54:56.646Z,10.03
2022-12-20T18:57:24.106Z,9.70
2022-12-20T18:59:51.630Z,9.59
2022-12-20T19:02:19.294Z,9.87
2022-12-20T19:04:46.863Z,9.84
2022-12-20T19:07:15.521Z,9.10
2022-12-20T19:09:44.310Z,9.96
2022-12-20T19:12:11.821Z,10.10
2022-12-20T19:14:39.227Z,9.69
2022-12-20T19:17:06.849Z,9.07
2022-12-20T19:19:34.327Z,9.86
2022-12-20T19:22:02.034Z,9.53
2022-12-20T19:24:29.481Z,9.74
2022-12-20T19:26:58.613Z,9.66
2022-12-20T19:29:26.058Z,9.97
2022-12-20T19:31:53.436Z,9.62
2022-12-20T19:34:20.828Z,9.57
2022-12-20T19:36:48.483Z,9.86
2022-12-20T19:39:18.009Z,9.86
2022-12-20T19:41:59.831Z,9.36
2022-12-20T19:44:34.387Z,9.80
2022-12-20T19:47:04.849Z,9.84
2022-12-20T19:49:32.309Z,9.57
2022-12-20T19:51:59.807Z,9.78
2022-12-20T19:54:27.437Z,9.89
2022-12-20T19:56:54.847Z,9.92
2022-12-20T19:59:22.325Z,9.87
2022-12-20T20:01:51.415Z,9.75
2022-12-20T20:04:18.901Z,9.81
2022-12-20T20:06:46.303Z,9.31
2022-12-20T20:09:13.713Z,9.83
2022-12-20T20:11:41.166Z,9.90
2022-12-20T20:14:10.151Z,9.83
2022-12-20T20:16:37.840Z,9.97
2022-12-20T20:19:06.887Z,9.80
2022-12-20T20:21:36.327Z,9.99
2022-12-20T20:24:03.833Z,10.00
2022-12-20T20:26:31.866Z,9.99
2022-12-20T20:29:01.387Z,9.79
2022-12-20T20:31:29.439Z,9.90
2022-12-20T20:33:58.203Z,9.91
2022-12-20T20:36:27.031Z,9.84
2022-12-20T20:38:54.459Z,9.80
2022-12-20T20:41:22.613Z,9.69
2022-12-20T20:43:50.252Z,9.78
2022-12-20T20:46:18.780Z,9.88
2022-12-20T20:48:46.604Z,9.80
2022-12-20T20:51:14.635Z,9.44
2022-12-20T20:53:43.615Z,9.55
2022-12-20T20:56:11.680Z,9.67
2022-12-20T20:58:39.443Z,9.60
2022-12-20T21:01:09.307Z,9.88
2022-12-20T21:03:38.047Z,9.89
2022-12-20T21:06:39.174Z,9.82
2022-12-20T21:08:56.155Z,9.69
2022-12-20T21:11:24.419Z,9.70
2022-12-20T21:13:53.976Z,9.22
2022-12-20T21:16:22.478Z,9.63
2022-12-20T21:18:51.692Z,9.68
2022-12-20T21:21:20.218Z,9.78
2022-12-20T21:23:48.307Z,9.53
2022-12-20T21:26:18.452Z,9.46
2022-12-20T21:28:46.000Z,9.55
2022-12-20T21:31:14.991Z,9.52
2022-12-20T21:33:42.882Z,9.90
2022-12-20T21:36:14.390Z,9.67
2022-12-20T21:38:42.486Z,9.75
2022-12-20T21:41:13.246Z,9.57
2022-12-20T21:43:42.099Z,9.63
2022-12-20T21:46:11.279Z,9.55
2022-12-20T21:48:39.309Z,9.67
2022-12-20T21:51:10.007Z,9.71
2022-12-20T21:53:42.198Z,9.21
2022-12-20T21:56:09.767Z,9.08
2022-12-20T21:58:37.464Z,9.19
2022-12-20T22:01:07.983Z,9.49
2022-12-20T22:03:36.752Z,8.92
2022-12-20T22:06:05.169Z,9.60
2022-12-20T22:08:33.259Z,9.59
2022-12-20T22:11:01.992Z,8.58
2022-12-20T22:13:33.235Z,9.07
2022-12-20T22:16:08.234Z,9.37
2022-12-20T22:18:36.603Z,9.44
2022-12-20T22:21:04.600Z,9.10
2022-12-20T22:23:32.458Z,8.71
2022-12-20T22:26:02.575Z,8.63
2022-12-20T22:28:30.382Z,9.22
2022-12-20T22:30:57.846Z,9.46
2022-12-20T22:33:26.551Z,9.54
2022-12-20T22:35:53.986Z,9.66
2022-12-20T22:38:21.395Z,9.10
2022-12-20T22:40:48.772Z,8.79
2022-12-20T22:43:16.192Z,8.95
2022-12-20T22:45:43.690Z,9.38
2022-12-20T22:48:11.185Z,9.53
2022-12-20T22:50:39.932Z,9.13
2022-12-20T22:53:07.415Z,9.57
2022-12-20T22:55:35.541Z,9.06
2022-12-20T22:58:03.186Z,8.66
2022-12-20T23:00:30.713Z,9.12
2022-12-20T23:02:58.300Z,9.10
2022-12-20T23:05:25.975Z,9.17
2022-12-20T23:07:54.833Z,9.20
2022-12-20T23:10:39.717Z,9.34
2022-12-20T23:13:24.922Z,9.17
2022-12-20T23:15:52.542Z,9.22
2022-12-20T23:18:20.038Z,9.39
2022-12-20T23:21:07.469Z,9.48
2022-12-20T23:23:36.227Z,9.63
2022-12-20T23:26:10.146Z,9.35
2022-12-20T23:28:37.769Z,8.74
2022-12-20T23:31:05.946Z,9.20
2022-12-20T23:33:33.602Z,9.36
2022-12-20T23:36:02.867Z,9.56
2022-12-20T23:38:32.300Z,9.57
2022-12-20T23:41:01.323Z,8.98
2022-12-20T23:43:30.580Z,9.19
2022-12-20T23:46:03.502Z,9.54
2022-12-20T23:48:31.026Z,9.31
2022-12-20T23:50:59.329Z,9.07
2022-12-20T23:53:27.321Z,9.48
2022-12-20T23:56:05.210Z,8.81
2022-12-20T23:58:32.788Z,9.28
